createdAt,value
2019-04-21T00:00:10.211Z,62.80
2019-04-21T00:01:08.692Z,62.59
2019-04-21T00:02:05.625Z,62.49
2019-04-21T00:03:10.020Z,62.42
2019-04-21T00:04:22.839Z,62.59
2019-04-21T00:05:26.122Z,62.93
2019-04-21T00:06:22.359Z,62.93
2019-04-21T00:07:27.755Z,62.83
2019-04-21T00:08:33.592Z,62.62
2019-04-21T00:09:25.460Z,63.65
2019-04-21T00:10:28.708Z,63.17
2019-04-21T00:11:30.083Z,62.85
2019-04-21T00:12:22.061Z,63.20
2019-04-21T00:13:22.611Z,63.70
2019-04-21T00:14:18.405Z,63.98
2019-04-21T00:15:19.401Z,63.81
2019-04-21T00:16:10.667Z,64.32
2019-04-21T00:17:09.733Z,63.81
2019-04-21T00:18:08.595Z,64.53
2019-04-21T00:19:13.887Z,63.81
2019-04-21T00:20:17.620Z,63.81
2019-04-21T00:21:14.875Z,64.22
2019-04-21T00:22:14.888Z,64.53
2019-04-21T00:23:22.665Z,64.65
2019-04-21T00:24:20.321Z,64.53
2019-04-21T00:25:20.724Z,64.42
2019-04-21T00:26:23.957Z,64.83
2019-04-21T00:27:20.232Z,64.56
2019-04-21T00:28:31.221Z,64.97
2019-04-21T00:29:33.038Z,65.58
2019-04-21T00:30:31.833Z,65.58
2019-04-21T00:31:24.769Z,65.37
2019-04-21T00:32:17.952Z,65.68
2019-04-21T00:33:09.178Z,65.68
2019-04-21T00:34:05.192Z,65.78
2019-04-21T00:35:09.962Z,65.89
2019-04-21T00:36:13.361Z,65.20
2019-04-21T00:37:15.539Z,66.12
2019-04-21T00:38:25.259Z,65.81
2019-04-21T00:39:37.188Z,65.71
2019-04-21T00:40:30.350Z,66.02
2019-04-21T00:41:25.104Z,66.02
2019-04-21T00:42:24.124Z,65.81
2019-04-21T00:43:26.579Z,66.12
2019-04-21T00:44:17.303Z,65.81
2019-04-21T00:45:18.190Z,65.20
2019-04-21T00:46:17.525Z,66.02
2019-04-21T00:47:26.671Z,66.33
2019-04-21T00:48:29.872Z,66.46
2019-04-21T00:49:19.708Z,66.67
2019-04-21T00:50:25.643Z,65.51
2019-04-21T00:51:34.372Z,65.81
2019-04-21T00:52:39.686Z,66.46
2019-04-21T00:53:35.764Z,66.56
2019-04-21T00:54:33.076Z,66.25
2019-04-21T00:55:35.483Z,66.36
2019-04-21T00:56:29.672Z,66.97
2019-04-21T00:57:34.336Z,66.87
2019-04-21T00:58:30.410Z,66.97
2019-04-21T00:59:25.645Z,66.87
2019-04-21T01:00:30.736Z,67.59
2019-04-21T01:01:25.283Z,66.77
2019-04-21T01:02:24.742Z,67.08
2019-04-21T01:03:26.747Z,66.97
2019-04-21T01:04:31.806Z,67.28
2019-04-21T01:05:34.050Z,67.21
2019-04-21T01:06:33.172Z,66.90
2019-04-21T01:07:28.186Z,67.21
2019-04-21T01:08:25.255Z,67.32
2019-04-21T01:09:25.940Z,67.21
2019-04-21T01:10:17.444Z,67.52
2019-04-21T01:11:23.993Z,67.72
2019-04-21T01:12:26.887Z,67.72
2019-04-21T01:13:27.294Z,67.44
2019-04-21T01:14:34.786Z,67.55
2019-04-21T01:15:32.519Z,67.55
2019-04-21T01:16:31.575Z,67.44
2019-04-21T01:17:28.835Z,67.44
2019-04-21T01:18:31.445Z,67.65
2019-04-21T01:19:21.668Z,67.96
2019-04-21T01:20:16.003Z,67.99
2019-04-21T01:21:13.745Z,67.68
2019-04-21T01:22:04.628Z,67.86
2019-04-21T01:23:04.366Z,67.79
2019-04-21T01:24:11.812Z,68.10
2019-04-21T01:25:13.404Z,67.96
2019-04-21T01:26:18.015Z,67.86
2019-04-21T01:27:12.671Z,68.10
2019-04-21T01:28:21.359Z,67.99
2019-04-21T01:29:19.329Z,68.30
2019-04-21T01:30:26.515Z,68.61
2019-04-21T01:31:22.907Z,68.61
2019-04-21T01:32:29.533Z,68.81
2019-04-21T01:33:27.795Z,69.12
2019-04-21T01:34:24.886Z,69.36
2019-04-21T01:35:30.081Z,69.26
2019-04-21T01:36:24.562Z,69.98
2019-04-21T01:37:20.739Z,69.26
2019-04-21T01:38:32.017Z,69.26
2019-04-21T01:39:27.157Z,69.15
2019-04-21T01:40:29.046Z,69.15
2019-04-21T01:41:29.890Z,69.26
2019-04-21T01:42:25.632Z,69.67
2019-04-21T01:43:24.987Z,69.77
2019-04-21T01:44:29.810Z,69.87
2019-04-21T01:45:22.423Z,69.15
2019-04-21T01:46:19.542Z,69.36
2019-04-21T01:47:20.459Z,69.56
2019-04-21T01:48:21.025Z,69.87
2019-04-21T01:49:15.793Z,69.56
2019-04-21T01:50:21.095Z,69.67
2019-04-21T01:51:18.940Z,69.67
2019-04-21T01:52:34.997Z,70.18
2019-04-21T01:53:31.061Z,69.98
2019-04-21T01:54:31.252Z,69.87
2019-04-21T01:55:26.382Z,69.09
2019-04-21T01:56:29.310Z,70.01
2019-04-21T01:57:23.105Z,69.87
2019-04-21T01:58:19.765Z,70.21
2019-04-21T01:59:14.111Z,70.21
2019-04-21T02:00:13.319Z,70.52
2019-04-21T02:01:24.632Z,70.42
2019-04-21T02:02:23.010Z,70.42
2019-04-21T02:03:43.399Z,70.42
2019-04-21T02:04:34.727Z,70.52
2019-04-21T02:05:31.318Z,70.32
2019-04-21T02:06:27.637Z,71.17
2019-04-21T02:07:27.052Z,70.97
2019-04-21T02:08:25.651Z,71.28
2019-04-21T02:09:24.005Z,71.37
2019-04-21T02:10:26.657Z,71.37
2019-04-21T02:11:44.353Z,71.28
2019-04-21T02:12:25.263Z,70.97
2019-04-21T02:13:23.153Z,71.58
2019-04-21T02:14:31.174Z,71.48
2019-04-21T02:15:29.687Z,71.17
2019-04-21T02:16:23.109Z,71.37
2019-04-21T02:17:23.843Z,71.48
2019-04-21T02:18:24.314Z,71.48
2019-04-21T02:19:18.027Z,71.82
2019-04-21T02:20:19.402Z,72.13
2019-04-21T02:21:17.974Z,71.92
2019-04-21T02:22:27.232Z,71.72
2019-04-21T02:23:34.544Z,71.62
2019-04-21T02:24:38.721Z,71.51
2019-04-21T02:25:26.054Z,71.82
2019-04-21T02:26:31.613Z,71.72
2019-04-21T02:27:23.803Z,71.51
2019-04-21T02:28:29.844Z,71.62
2019-04-21T02:29:29.061Z,71.62
2019-04-21T02:30:36.184Z,71.62
2019-04-21T02:31:39.539Z,71.72
2019-04-21T02:32:35.354Z,72.03
2019-04-21T02:33:39.138Z,71.92
2019-04-21T02:34:44.122Z,71.72
2019-04-21T02:35:38.500Z,72.03
2019-04-21T02:36:51.389Z,72.24
2019-04-21T02:37:44.581Z,72.78
2019-04-21T02:38:39.849Z,72.37
2019-04-21T02:40:39.042Z,72.47
2019-04-21T02:42:37.775Z,72.99
2019-04-21T02:43:58.230Z,72.37
2019-04-21T02:44:37.512Z,72.37
2019-04-21T02:45:43.492Z,72.68
2019-04-21T02:47:50.666Z,72.06
2019-04-21T02:48:38.855Z,72.47
2019-04-21T02:49:45.224Z,72.81
2019-04-21T02:50:37.590Z,73.13
2019-04-21T02:51:36.857Z,73.43
2019-04-21T02:52:37.393Z,74.05
2019-04-21T02:53:48.275Z,73.54
2019-04-21T02:55:28.987Z,73.78
2019-04-21T02:56:52.927Z,74.29
2019-04-21T02:57:41.244Z,73.98
2019-04-21T02:58:58.354Z,74.29
2019-04-21T02:59:33.740Z,75.63
2019-04-21T03:02:43.060Z,74.50
2019-04-21T03:04:36.149Z,74.95
2019-04-21T03:05:42.441Z,75.53
2019-04-21T03:06:45.751Z,75.87
2019-04-21T03:07:44.727Z,75.87
2019-04-21T03:09:45.901Z,74.53
2019-04-21T03:11:28.641Z,75.05
2019-04-21T03:12:28.653Z,75.87
2019-04-21T03:15:45.083Z,75.05
2019-04-21T03:16:34.767Z,75.36
2019-04-21T03:17:43.625Z,75.98
2019-04-21T03:18:48.570Z,75.26
2019-04-21T03:21:38.351Z,75.26
2019-04-21T03:25:04.270Z,75.98
2019-04-21T03:26:40.346Z,75.98
2019-04-21T03:28:37.006Z,75.26
2019-04-21T03:29:40.208Z,75.26
2019-04-21T03:32:14.340Z,74.95
2019-04-21T03:33:08.437Z,75.18
2019-04-21T03:35:00.256Z,75.46
2019-04-21T03:36:52.839Z,75.18
2019-04-21T03:38:37.655Z,75.29
2019-04-21T03:39:36.663Z,75.81
2019-04-21T03:41:39.989Z,75.91
2019-04-21T03:42:38.968Z,76.21
2019-04-21T03:43:40.151Z,75.09
2019-04-21T03:44:37.402Z,75.29
2019-04-21T03:46:42.167Z,75.29
2019-04-21T03:47:36.075Z,76.21
2019-04-21T03:48:36.649Z,76.21
2019-04-21T03:49:48.118Z,76.77
2019-04-21T03:52:39.274Z,77.39
2019-04-21T03:53:32.049Z,77.70
2019-04-21T03:54:37.158Z,76.87
2019-04-21T03:56:52.449Z,76.25
2019-04-21T03:57:46.364Z,76.46
2019-04-21T03:58:47.455Z,76.46
2019-04-21T03:59:25.801Z,76.35
2019-04-21T04:01:32.377Z,77.25
2019-04-21T04:02:52.359Z,76.12
2019-04-21T04:05:48.159Z,76.73
2019-04-21T04:06:35.537Z,76.56
2019-04-21T04:07:44.220Z,76.35
2019-04-21T04:09:37.586Z,77.18
2019-04-21T04:10:31.678Z,77.28
2019-04-21T04:11:37.769Z,77.39
2019-04-21T04:12:34.991Z,76.98
2019-04-21T04:14:40.001Z,76.98
2019-04-21T04:15:39.466Z,77.91
2019-04-21T04:19:42.015Z,78.25
2019-04-21T04:23:41.622Z,77.22
2019-04-21T04:24:49.336Z,76.77
2019-04-21T04:26:42.926Z,78.01
2019-04-21T04:27:49.464Z,77.63
2019-04-21T04:34:42.023Z,77.53
2019-04-21T04:35:42.379Z,77.94
2019-04-21T04:36:50.024Z,77.94
2019-04-21T04:38:39.280Z,78.35
2019-04-21T04:39:45.988Z,78.14
2019-04-21T04:41:53.203Z,78.05
2019-04-21T04:42:41.094Z,78.05
2019-04-21T04:43:39.056Z,78.01
2019-04-21T04:44:50.051Z,77.94
2019-04-21T04:45:44.179Z,78.01
2019-04-21T04:46:44.264Z,77.59
2019-04-21T04:49:46.389Z,77.59
2019-04-21T04:50:45.493Z,77.80
2019-04-21T04:51:44.382Z,77.49
2019-04-21T04:55:33.502Z,77.80
2019-04-21T04:56:31.444Z,77.94
2019-04-21T04:57:46.985Z,77.59
2019-04-21T05:00:35.080Z,77.80
2019-04-21T05:01:55.448Z,77.91
2019-04-21T05:03:43.906Z,77.63
2019-04-21T05:04:46.221Z,77.80
2019-04-21T05:05:44.998Z,77.91
2019-04-21T05:07:42.853Z,77.84
2019-04-21T05:08:44.853Z,77.70
2019-04-21T05:10:43.110Z,77.59
2019-04-21T05:12:32.486Z,77.25
2019-04-21T05:13:34.506Z,77.87
2019-04-21T05:14:30.119Z,77.35
2019-04-21T05:15:25.525Z,77.25
2019-04-21T05:16:41.129Z,77.25
2019-04-21T05:17:37.849Z,77.15
2019-04-21T05:18:35.179Z,77.04
2019-04-21T05:19:53.977Z,77.15
2019-04-21T05:20:23.772Z,77.76
2019-04-21T05:21:37.555Z,77.31
2019-04-21T05:23:28.755Z,76.59
2019-04-21T05:24:25.601Z,77.15
2019-04-21T05:25:20.859Z,77.22
2019-04-21T05:26:14.335Z,76.29
2019-04-21T05:27:16.633Z,75.56
2019-04-21T05:28:16.446Z,77.31
2019-04-21T05:29:18.477Z,76.18
2019-04-21T05:30:29.593Z,76.70
2019-04-21T05:31:27.096Z,76.29
2019-04-21T05:32:26.445Z,77.22
2019-04-21T05:33:27.566Z,77.18
2019-04-21T05:34:23.300Z,76.49
2019-04-21T05:35:20.089Z,76.15
2019-04-21T05:36:20.496Z,76.18
2019-04-21T05:37:25.934Z,75.63
2019-04-21T05:38:21.837Z,76.08
2019-04-21T05:39:18.788Z,76.18
2019-04-21T05:40:19.576Z,76.35
2019-04-21T05:41:14.935Z,76.39
2019-04-21T05:42:11.024Z,76.39
2019-04-21T05:43:21.362Z,77.22
2019-04-21T05:44:33.303Z,76.66
2019-04-21T05:45:26.897Z,77.28
2019-04-21T05:46:26.112Z,77.59
2019-04-21T05:47:29.878Z,75.73
2019-04-21T05:49:22.000Z,75.81
2019-04-21T05:50:19.085Z,75.39
2019-04-21T05:51:20.522Z,75.63
2019-04-21T05:52:21.055Z,74.88
2019-04-21T05:53:31.286Z,75.81
2019-04-21T05:54:29.432Z,75.18
2019-04-21T05:55:31.747Z,75.08
2019-04-21T05:56:25.122Z,75.15
2019-04-21T05:57:22.228Z,75.46
2019-04-21T05:58:21.013Z,75.77
2019-04-21T05:59:23.566Z,75.77
2019-04-21T06:00:31.021Z,75.52
2019-04-21T06:01:39.338Z,75.01
2019-04-21T06:02:38.498Z,75.52
2019-04-21T06:03:29.291Z,75.29
2019-04-21T06:04:41.562Z,74.36
2019-04-21T06:05:31.819Z,74.36
2019-04-21T06:06:26.221Z,73.95
2019-04-21T06:08:29.753Z,73.50
2019-04-21T06:09:27.226Z,73.50
2019-04-21T06:10:27.334Z,74.43
2019-04-21T06:11:25.231Z,73.50
2019-04-21T06:12:21.330Z,73.50
2019-04-21T06:13:26.814Z,74.43
2019-04-21T06:14:29.340Z,74.08
2019-04-21T06:15:29.355Z,73.78
2019-04-21T06:16:30.309Z,74.40
2019-04-21T06:17:31.433Z,73.36
2019-04-21T06:18:27.077Z,73.27
2019-04-21T06:19:31.171Z,72.96
2019-04-21T06:20:27.211Z,74.26
2019-04-21T06:21:25.166Z,72.82
2019-04-21T06:22:18.860Z,73.33
2019-04-21T06:23:25.745Z,73.13
2019-04-21T06:24:25.168Z,73.23
2019-04-21T06:25:50.033Z,72.72
2019-04-21T06:27:27.992Z,72.72
2019-04-21T06:28:30.320Z,72.51
2019-04-21T06:29:23.699Z,72.78
2019-04-21T06:30:27.721Z,72.68
2019-04-21T06:31:33.786Z,73.10
2019-04-21T06:32:38.510Z,73.10
2019-04-21T06:33:33.391Z,72.27
2019-04-21T06:34:24.883Z,72.55
2019-04-21T06:35:37.769Z,72.68
2019-04-21T06:36:38.758Z,72.03
2019-04-21T06:37:40.212Z,72.03
2019-04-21T06:38:35.973Z,71.59
2019-04-21T06:39:25.185Z,71.48
2019-04-21T06:40:30.533Z,70.36
2019-04-21T06:42:23.855Z,68.79
2019-04-21T06:43:38.577Z,68.59
2019-04-21T06:44:23.989Z,68.48
2019-04-21T06:45:27.592Z,68.65
2019-04-21T06:46:30.879Z,69.13
2019-04-21T06:47:32.454Z,69.65
2019-04-21T06:48:24.577Z,68.90
2019-04-21T06:49:20.406Z,68.79
2019-04-21T06:50:22.743Z,67.74
2019-04-21T06:51:28.890Z,67.43
2019-04-21T06:53:29.590Z,67.57
2019-04-21T06:54:23.562Z,66.93
2019-04-21T06:55:26.457Z,66.59
2019-04-21T06:56:32.339Z,66.05
2019-04-21T06:57:28.958Z,65.34
2019-04-21T06:58:28.971Z,64.52
2019-04-21T06:59:21.092Z,64.18
2019-04-21T07:00:18.522Z,62.96
2019-04-21T07:01:26.562Z,63.23
2019-04-21T07:02:36.075Z,62.93
2019-04-21T07:03:40.531Z,63.23
2019-04-21T07:04:31.513Z,62.59
2019-04-21T07:05:26.336Z,62.29
2019-04-21T07:06:26.370Z,62.59
2019-04-21T07:07:25.610Z,62.16
2019-04-21T07:09:25.509Z,62.54
2019-04-21T07:11:21.111Z,61.21
2019-04-21T07:12:23.195Z,62.13
2019-04-21T07:13:22.275Z,62.23
2019-04-21T07:14:30.064Z,61.93
2019-04-21T07:15:25.302Z,61.00
2019-04-21T07:16:25.620Z,60.77
2019-04-21T07:17:24.340Z,61.08
2019-04-21T07:18:30.052Z,61.15
2019-04-21T07:19:30.865Z,59.73
2019-04-21T07:20:21.975Z,59.53
2019-04-21T07:21:21.872Z,60.44
2019-04-21T07:22:24.476Z,60.21
2019-04-21T07:23:28.545Z,60.00
2019-04-21T07:24:25.115Z,59.09
2019-04-21T07:25:26.461Z,58.17
2019-04-21T07:26:27.878Z,58.56
2019-04-21T07:27:22.256Z,57.54
2019-04-21T07:28:25.118Z,56.52
2019-04-21T07:29:29.813Z,57.41
2019-04-21T07:30:28.008Z,57.00
2019-04-21T07:31:25.294Z,55.38
2019-04-21T07:32:20.914Z,53.63
2019-04-21T07:33:41.504Z,53.72
2019-04-21T07:34:28.521Z,54.41
2019-04-21T07:35:22.118Z,53.50
2019-04-21T07:36:32.355Z,52.38
2019-04-21T07:37:25.488Z,53.30
2019-04-21T07:38:21.176Z,53.80
2019-04-21T07:39:18.509Z,52.36
2019-04-21T07:40:17.796Z,52.66
2019-04-21T07:41:15.937Z,52.36
2019-04-21T07:42:18.573Z,52.94
2019-04-21T07:43:18.177Z,52.03
2019-04-21T07:44:16.825Z,51.80
2019-04-21T07:45:16.884Z,52.51
2019-04-21T07:46:16.845Z,52.08
2019-04-21T07:47:23.502Z,52.18
2019-04-21T07:48:18.999Z,51.27
2019-04-21T07:49:19.221Z,51.88
2019-04-21T07:50:24.193Z,50.66
2019-04-21T07:51:25.363Z,52.36
2019-04-21T07:52:22.164Z,52.97
2019-04-21T07:53:27.703Z,53.47
2019-04-21T07:54:33.838Z,50.92
2019-04-21T07:56:07.238Z,51.93
2019-04-21T07:57:16.836Z,52.92
2019-04-21T07:58:22.521Z,53.63
2019-04-21T07:59:28.158Z,52.31
2019-04-21T08:01:28.840Z,50.29
2019-04-21T08:02:22.209Z,49.15
2019-04-21T08:03:24.988Z,48.44
2019-04-21T08:04:39.320Z,49.66
2019-04-21T08:05:24.860Z,48.34
2019-04-21T08:06:22.756Z,49.25
2019-04-21T08:07:21.952Z,48.11
2019-04-21T08:08:20.792Z,46.60
2019-04-21T08:09:18.951Z,46.20
2019-04-21T08:10:16.086Z,48.19
2019-04-21T08:11:24.321Z,47.69
2019-04-21T08:12:16.033Z,47.19
2019-04-21T08:13:28.774Z,47.47
2019-04-21T08:14:24.216Z,45.62
2019-04-21T08:15:30.695Z,43.40
2019-04-21T08:16:24.162Z,45.00
2019-04-21T08:17:16.231Z,45.81
2019-04-21T08:18:21.057Z,42.86
2019-04-21T08:19:19.194Z,43.16
2019-04-21T08:20:18.814Z,41.53
2019-04-21T08:21:23.633Z,39.29
2019-04-21T08:22:27.168Z,39.70
2019-04-21T08:23:21.589Z,39.48
2019-04-21T08:24:20.076Z,39.15
2019-04-21T08:25:21.817Z,37.74
2019-04-21T08:26:17.456Z,35.41
2019-04-21T08:28:21.066Z,35.50
2019-04-21T08:29:29.707Z,35.50
2019-04-21T08:30:20.439Z,35.58
2019-04-21T08:31:25.749Z,35.77
2019-04-21T08:32:26.562Z,34.96
2019-04-21T08:33:26.262Z,35.88
2019-04-21T08:34:22.604Z,40.06
2019-04-21T08:35:49.723Z,34.61
2019-04-21T08:37:13.941Z,35.55
2019-04-21T08:38:13.583Z,34.14
2019-04-21T08:39:13.201Z,34.34
2019-04-21T08:40:17.710Z,35.23
2019-04-21T08:41:15.221Z,35.03
2019-04-21T08:42:10.932Z,34.24
2019-04-21T08:43:22.821Z,33.42
2019-04-21T08:44:10.534Z,33.83
2019-04-21T08:45:16.258Z,34.63
2019-04-21T08:46:16.066Z,35.23
2019-04-21T08:47:15.497Z,36.33
2019-04-21T08:49:15.006Z,36.61
2019-04-21T08:50:16.614Z,34.92
2019-04-21T08:52:21.302Z,34.61
2019-04-21T08:53:12.541Z,34.39
2019-04-21T08:54:15.168Z,35.50
2019-04-21T08:55:22.563Z,34.08
2019-04-21T08:56:16.453Z,34.38
2019-04-21T08:57:14.554Z,34.36
2019-04-21T08:59:18.941Z,32.44
2019-04-21T09:01:17.819Z,32.94
2019-04-21T09:02:15.851Z,32.43
2019-04-21T09:03:14.310Z,30.91
2019-04-21T09:04:12.788Z,32.40
2019-04-21T09:05:12.617Z,32.18
2019-04-21T09:06:17.554Z,31.70
2019-04-21T09:07:18.239Z,31.61
2019-04-21T09:08:13.429Z,32.31
2019-04-21T09:10:09.374Z,32.58
2019-04-21T09:11:11.488Z,32.65
2019-04-21T09:12:10.283Z,30.33
2019-04-21T09:13:10.278Z,30.22
2019-04-21T09:14:13.075Z,29.90
2019-04-21T09:15:14.067Z,30.18
2019-04-21T09:16:08.503Z,29.67
2019-04-21T09:17:06.517Z,28.60
2019-04-21T09:18:08.730Z,28.70
2019-04-21T09:19:11.747Z,29.10
2019-04-21T09:20:17.212Z,28.90
2019-04-21T09:21:14.859Z,30.22
2019-04-21T09:22:14.198Z,29.11
2019-04-21T09:23:13.299Z,29.11
2019-04-21T09:24:11.533Z,28.90
2019-04-21T09:25:16.287Z,29.00
2019-04-21T09:26:14.094Z,30.16
2019-04-21T09:27:08.386Z,29.67
2019-04-21T09:28:12.613Z,29.57
2019-04-21T09:29:05.710Z,29.67
2019-04-21T09:29:57.560Z,28.97
2019-04-21T09:30:57.881Z,29.17
2019-04-21T09:31:57.313Z,27.97
2019-04-21T09:32:56.383Z,27.36
2019-04-21T09:33:56.977Z,28.55
2019-04-21T09:34:53.052Z,28.38
2019-04-21T09:35:56.362Z,26.47
2019-04-21T09:37:03.330Z,28.46
2019-04-21T09:37:59.622Z,28.36
2019-04-21T09:39:01.168Z,27.66
2019-04-21T09:39:55.937Z,27.55
2019-04-21T09:40:54.513Z,27.97
2019-04-21T09:41:56.539Z,26.28
2019-04-21T09:42:59.507Z,27.37
2019-04-21T09:43:55.860Z,26.78
2019-04-21T09:44:57.014Z,27.36
2019-04-21T09:45:54.241Z,27.55
2019-04-21T09:46:54.938Z,26.82
2019-04-21T09:48:01.033Z,27.52
2019-04-21T09:49:00.349Z,26.73
2019-04-21T09:49:54.313Z,26.13
2019-04-21T09:50:52.468Z,25.14
2019-04-21T09:51:52.968Z,26.13
2019-04-21T09:52:57.688Z,25.37
2019-04-21T09:54:00.918Z,26.51
2019-04-21T09:55:02.095Z,27.60
2019-04-21T09:55:58.200Z,27.49
2019-04-21T09:56:58.552Z,26.48
2019-04-21T09:57:56.963Z,26.95
2019-04-21T09:59:03.815Z,26.74
2019-04-21T10:00:03.865Z,25.05
2019-04-21T10:01:04.872Z,26.12
2019-04-21T10:02:03.647Z,25.61
2019-04-21T10:03:00.914Z,25.30
2019-04-21T10:03:57.195Z,24.40
2019-04-21T10:04:52.809Z,25.08
2019-04-21T10:05:52.072Z,23.97
2019-04-21T10:06:51.978Z,23.88
2019-04-21T10:07:53.010Z,24.47
2019-04-21T10:08:58.326Z,24.57
2019-04-21T10:09:52.672Z,24.85
2019-04-21T10:10:51.660Z,24.27
2019-04-21T10:11:52.769Z,26.45
2019-04-21T10:12:52.021Z,23.18
2019-04-21T10:13:52.928Z,25.05
2019-04-21T10:14:51.846Z,23.66
2019-04-21T10:15:51.951Z,24.04
2019-04-21T10:16:51.656Z,23.54
2019-04-21T10:17:52.022Z,23.35
2019-04-21T10:18:52.361Z,23.48
2019-04-21T10:19:52.764Z,25.37
2019-04-21T10:20:51.548Z,24.85
2019-04-21T10:21:52.031Z,25.34
2019-04-21T10:22:51.571Z,24.15
2019-04-21T10:23:52.246Z,25.34
2019-04-21T10:24:52.179Z,23.56
2019-04-21T10:25:52.558Z,25.04
2019-04-21T10:26:51.487Z,24.93
2019-04-21T10:27:52.760Z,24.83
2019-04-21T10:28:52.936Z,24.72
2019-04-21T10:29:52.256Z,24.11
2019-04-21T10:30:52.827Z,25.19
2019-04-21T10:31:52.442Z,24.60
2019-04-21T10:32:52.451Z,24.20
2019-04-21T10:33:52.527Z,23.83
2019-04-21T10:34:52.758Z,24.43
2019-04-21T10:35:51.401Z,25.03
2019-04-21T10:36:51.473Z,24.54
2019-04-21T10:38:03.478Z,25.44
2019-04-21T10:38:53.937Z,26.53
2019-04-21T10:39:51.601Z,25.44
2019-04-21T10:40:51.749Z,26.43
2019-04-21T10:41:51.332Z,25.34
2019-04-21T10:42:52.250Z,26.62
2019-04-21T10:43:51.518Z,25.55
2019-04-21T10:44:52.612Z,25.95
2019-04-21T10:45:52.767Z,24.76
2019-04-21T10:46:52.532Z,25.25
2019-04-21T10:47:52.716Z,25.45
2019-04-21T10:48:52.559Z,24.87
2019-04-21T10:49:51.246Z,26.48
2019-04-21T10:50:51.234Z,27.57
2019-04-21T10:51:51.284Z,27.66
2019-04-21T10:52:51.218Z,26.75
2019-04-21T10:53:53.889Z,26.84
2019-04-21T10:55:15.072Z,26.64
2019-04-21T10:56:06.474Z,25.54
2019-04-21T10:56:52.611Z,26.04
2019-04-21T10:57:51.148Z,26.35
2019-04-21T10:58:52.180Z,26.34
2019-04-21T10:59:54.117Z,26.34
2019-04-21T11:00:52.708Z,25.43
2019-04-21T11:01:51.105Z,24.73
2019-04-21T11:02:51.095Z,25.42
2019-04-21T11:03:51.133Z,24.81
2019-04-21T11:04:51.161Z,24.51
2019-04-21T11:05:52.584Z,24.71
2019-04-21T11:06:51.056Z,22.82
2019-04-21T11:08:01.171Z,23.60
2019-04-21T11:08:55.367Z,22.50
2019-04-21T11:09:51.859Z,20.83
2019-04-21T11:10:51.942Z,20.32
2019-04-21T11:11:53.161Z,20.80
2019-04-21T11:12:51.015Z,22.37
2019-04-21T11:13:51.001Z,20.31
2019-04-21T11:14:51.454Z,20.73
2019-04-21T11:15:51.041Z,20.62
2019-04-21T11:16:52.930Z,20.92
2019-04-21T11:17:52.239Z,20.90
2019-04-21T11:18:51.627Z,21.29
2019-04-21T11:19:50.916Z,20.60
2019-04-21T11:20:51.193Z,21.29
2019-04-21T11:21:50.906Z,22.86
2019-04-21T11:22:51.401Z,20.24
2019-04-21T11:23:52.110Z,21.93
2019-04-21T11:24:51.140Z,21.83
2019-04-21T11:25:51.680Z,20.35
2019-04-21T11:26:51.957Z,22.30
2019-04-21T11:27:51.212Z,21.10
2019-04-21T11:28:50.883Z,20.43
2019-04-21T11:29:51.692Z,22.19
2019-04-21T11:30:51.034Z,21.88
2019-04-21T11:31:51.348Z,20.98
2019-04-21T11:32:51.116Z,20.38
2019-04-21T11:33:51.190Z,21.05
2019-04-21T11:34:51.511Z,20.65
2019-04-21T11:35:51.227Z,21.75
2019-04-21T11:36:52.158Z,21.98
2019-04-21T11:37:50.745Z,22.99
2019-04-21T11:39:06.113Z,22.80
2019-04-21T11:39:59.367Z,23.38
2019-04-21T11:40:51.843Z,21.91
2019-04-21T11:41:51.904Z,22.50
2019-04-21T11:42:51.549Z,22.30
2019-04-21T11:43:50.896Z,23.68
2019-04-21T11:44:51.487Z,21.32
2019-04-21T11:45:50.631Z,22.41
2019-04-21T11:46:50.623Z,22.01
2019-04-21T11:47:50.625Z,23.48
2019-04-21T11:48:50.602Z,20.32
2019-04-21T11:49:50.607Z,21.91
2019-04-21T11:50:50.965Z,21.21
2019-04-21T11:51:51.160Z,20.61
2019-04-21T11:52:50.557Z,20.91
2019-04-21T11:53:50.810Z,20.33
2019-04-21T11:54:50.925Z,20.95
2019-04-21T11:55:53.208Z,20.97
2019-04-21T11:56:50.715Z,21.45
2019-04-21T11:57:51.757Z,20.44
2019-04-21T11:58:51.834Z,20.90
2019-04-21T11:59:51.402Z,20.97
2019-04-21T12:00:52.063Z,20.37
2019-04-21T12:01:51.720Z,19.96
2019-04-21T12:02:51.167Z,20.56
2019-04-21T12:03:51.717Z,20.65
2019-04-21T12:04:51.556Z,20.94
2019-04-21T12:05:51.200Z,20.54
2019-04-21T12:06:51.157Z,19.74
2019-04-21T12:07:51.316Z,19.06
2019-04-21T12:08:52.887Z,20.04
2019-04-21T12:09:51.307Z,20.04
2019-04-21T12:10:51.518Z,19.56
2019-04-21T12:11:51.442Z,19.79
2019-04-21T12:12:50.999Z,20.18
2019-04-21T12:13:50.346Z,20.09
2019-04-21T12:14:50.363Z,20.87
2019-04-21T12:15:50.352Z,20.76
2019-04-21T12:16:50.911Z,20.26
2019-04-21T12:17:50.288Z,19.96
2019-04-21T12:18:51.206Z,20.46
2019-04-21T12:19:50.699Z,17.99
2019-04-21T12:20:51.612Z,19.56
2019-04-21T12:22:01.176Z,19.40
2019-04-21T12:22:51.252Z,20.50
2019-04-21T12:23:50.347Z,19.51
2019-04-21T12:24:51.299Z,20.41
2019-04-21T12:25:51.467Z,20.20
2019-04-21T12:26:50.233Z,20.38
2019-04-21T12:27:50.201Z,20.57
2019-04-21T12:28:50.252Z,20.26
2019-04-21T12:29:51.569Z,19.96
2019-04-21T12:30:51.577Z,18.98
2019-04-21T12:31:50.152Z,18.88
2019-04-21T12:32:50.132Z,19.17
2019-04-21T12:33:50.124Z,19.06
2019-04-21T12:34:51.841Z,17.88
2019-04-21T12:35:51.478Z,19.19
2019-04-21T12:36:50.761Z,21.20
2019-04-21T12:37:51.017Z,23.39
2019-04-21T12:38:55.900Z,22.19
2019-04-21T12:39:52.480Z,23.70
2019-04-21T12:40:50.746Z,24.29
2019-04-21T12:41:50.811Z,23.02
2019-04-21T12:42:50.486Z,23.73
2019-04-21T12:43:50.747Z,24.45
2019-04-21T12:44:50.080Z,23.39
2019-04-21T12:45:50.008Z,25.13
2019-04-21T12:46:50.103Z,25.65
2019-04-21T12:47:50.731Z,26.35
2019-04-21T12:48:49.967Z,26.47
2019-04-21T12:49:50.025Z,26.27
2019-04-21T12:50:49.997Z,25.97
2019-04-21T12:51:51.426Z,26.67
2019-04-21T12:52:49.943Z,26.76
2019-04-21T12:53:49.940Z,27.67
2019-04-21T12:54:51.381Z,27.79
2019-04-21T12:55:50.032Z,27.67
2019-04-21T12:56:49.903Z,24.99
2019-04-21T12:57:49.873Z,26.18
2019-04-21T12:58:51.345Z,23.90
2019-04-21T12:59:50.907Z,24.80
2019-04-21T13:00:51.553Z,25.20
2019-04-21T13:01:50.751Z,27.39
2019-04-21T13:02:49.899Z,28.38
2019-04-21T13:03:50.045Z,28.69
2019-04-21T13:04:52.200Z,29.48
2019-04-21T13:05:49.906Z,30.68
2019-04-21T13:06:49.952Z,29.78
2019-04-21T13:07:50.961Z,29.18
2019-04-21T13:08:54.491Z,30.69
2019-04-21T13:09:50.753Z,30.89
2019-04-21T13:10:49.808Z,29.78
2019-04-21T13:11:50.900Z,30.99
2019-04-21T13:12:50.077Z,30.40
2019-04-21T13:13:50.189Z,30.79
2019-04-21T13:14:49.732Z,30.40
2019-04-21T13:15:49.759Z,30.59
2019-04-21T13:16:49.795Z,31.09
2019-04-21T13:17:50.214Z,31.09
2019-04-21T13:18:49.714Z,30.79
2019-04-21T13:19:49.702Z,30.29
2019-04-21T13:20:49.705Z,29.80
2019-04-21T13:21:49.926Z,31.21
2019-04-21T13:22:50.294Z,32.18
2019-04-21T13:23:50.428Z,30.80
2019-04-21T13:24:49.667Z,31.51
2019-04-21T13:25:49.985Z,31.30
2019-04-21T13:26:55.965Z,31.21
2019-04-21T13:27:50.556Z,31.40
2019-04-21T13:28:50.081Z,30.80
2019-04-21T13:29:50.401Z,31.60
2019-04-21T13:30:50.684Z,29.51
2019-04-21T13:31:50.035Z,30.71
2019-04-21T13:32:51.073Z,30.80
2019-04-21T13:33:50.210Z,31.40
2019-04-21T13:34:50.923Z,29.41
2019-04-21T13:35:50.803Z,29.71
2019-04-21T13:36:49.878Z,28.73
2019-04-21T13:37:50.694Z,29.61
2019-04-21T13:39:23.303Z,29.72
2019-04-21T13:40:16.418Z,29.13
2019-04-21T13:41:05.370Z,28.73
2019-04-21T13:42:05.603Z,30.02
2019-04-21T13:42:55.081Z,29.72
2019-04-21T13:43:50.861Z,30.83
2019-04-21T13:44:50.858Z,31.62
2019-04-21T13:45:49.922Z,31.92
2019-04-21T13:46:49.380Z,32.42
2019-04-21T13:47:50.373Z,31.52
2019-04-21T13:48:50.739Z,31.32
2019-04-21T13:49:49.614Z,32.22
2019-04-21T13:50:49.328Z,29.72
2019-04-21T13:51:50.050Z,29.72
2019-04-21T13:52:49.299Z,30.42
2019-04-21T13:53:49.501Z,30.32
2019-04-21T13:54:49.660Z,30.52
2019-04-21T13:55:50.730Z,32.12
2019-04-21T13:56:50.392Z,32.53
2019-04-21T13:57:50.522Z,32.33
2019-04-21T13:58:50.422Z,32.14
2019-04-21T13:59:49.614Z,32.33
2019-04-21T14:00:50.522Z,32.73
2019-04-21T14:01:49.796Z,33.04
2019-04-21T14:02:49.167Z,32.65
2019-04-21T14:03:49.498Z,33.35
2019-04-21T14:04:49.665Z,32.75
2019-04-21T14:05:50.519Z,33.15